sensor_id;sensor_type;location;lat;lon;timestamp;P1;durP1;ratioP1;P2;durP2;ratioP2
32196;SDS011;18697;42.770;23.400;2023-07-08T00:00:27;13.20;;;10.45;;
32196;SDS011;18697;42.770;23.400;2023-07-08T00:02:53;16.00;;;12.23;;
32196;SDS011;18697;42.770;23.400;2023-07-08T00:05:19;13.07;;;10.40;;
32196;SDS011;18697;42.770;23.400;2023-07-08T00:07:46;17.33;;;10.75;;
32196;SDS011;18697;42.770;23.400;2023-07-08T00:10:16;12.02;;;10.52;;
32196;SDS011;18697;42.770;23.400;2023-07-08T00:12:44;15.07;;;10.30;;
32196;SDS011;18697;42.770;23.400;2023-07-08T00:15:13;13.00;;;10.57;;
32196;SDS011;18697;42.770;23.400;2023-07-08T00:17:38;14.30;;;10.98;;
32196;SDS011;18697;42.770;23.400;2023-07-08T00:20:09;13.27;;;10.32;;
32196;SDS011;18697;42.770;23.400;2023-07-08T00:22:37;16.60;;;12.38;;
32196;SDS011;18697;42.770;23.400;2023-07-08T00:25:04;14.48;;;10.70;;
32196;SDS011;18697;42.770;23.400;2023-07-08T00:27:29;13.43;;;10.82;;
32196;SDS011;18697;42.770;23.400;2023-07-08T00:29:55;15.43;;;11.35;;
32196;SDS011;18697;42.770;23.400;2023-07-08T00:32:20;16.08;;;11.35;;
32196;SDS011;18697;42.770;23.400;2023-07-08T00:34:45;15.93;;;11.50;;
32196;SDS011;18697;42.770;23.400;2023-07-08T00:37:11;14.52;;;9.98;;
32196;SDS011;18697;42.770;23.400;2023-07-08T00:39:37;13.38;;;11.02;;
32196;SDS011;18697;42.770;23.400;2023-07-08T00:42:12;16.60;;;11.98;;
32196;SDS011;18697;42.770;23.400;2023-07-08T00:44:41;12.00;;;10.30;;
32196;SDS011;18697;42.770;23.400;2023-07-08T00:47:08;16.90;;;10.10;;
32196;SDS011;18697;42.770;23.400;2023-07-08T00:49:37;16.10;;;12.43;;
32196;SDS011;18697;42.770;23.400;2023-07-08T00:52:16;13.18;;;11.10;;
32196;SDS011;18697;42.770;23.400;2023-07-08T00:54:44;16.60;;;11.32;;
32196;SDS011;18697;42.770;23.400;2023-07-08T00:57:09;14.07;;;11.10;;
32196;SDS011;18697;42.770;23.400;2023-07-08T00:59:41;14.07;;;10.90;;
32196;SDS011;18697;42.770;23.400;2023-07-08T01:02:11;15.20;;;12.50;;
32196;SDS011;18697;42.770;23.400;2023-07-08T01:05:25;13.80;;;11.85;;
32196;SDS011;18697;42.770;23.400;2023-07-08T01:07:35;13.05;;;10.65;;
32196;SDS011;18697;42.770;23.400;2023-07-08T01:10:04;17.00;;;11.95;;
32196;SDS011;18697;42.770;23.400;2023-07-08T01:12:38;17.17;;;11.48;;
32196;SDS011;18697;42.770;23.400;2023-07-08T01:15:08;14.52;;;11.65;;
32196;SDS011;18697;42.770;23.400;2023-07-08T01:17:35;16.20;;;11.07;;
32196;SDS011;18697;42.770;23.400;2023-07-08T01:20:00;11.60;;;10.32;;
32196;SDS011;18697;42.770;23.400;2023-07-08T01:22:30;13.48;;;11.30;;
32196;SDS011;18697;42.770;23.400;2023-07-08T01:24:57;11.52;;;10.32;;
32196;SDS011;18697;42.770;23.400;2023-07-08T01:27:28;15.32;;;11.45;;
32196;SDS011;18697;42.770;23.400;2023-07-08T01:29:56;12.27;;;10.90;;
32196;SDS011;18697;42.770;23.400;2023-07-08T01:32:23;15.63;;;11.25;;
32196;SDS011;18697;42.770;23.400;2023-07-08T01:34:49;14.60;;;11.30;;
32196;SDS011;18697;42.770;23.400;2023-07-08T01:37:36;14.38;;;11.07;;
32196;SDS011;18697;42.770;23.400;2023-07-08T01:42:52;14.27;;;11.05;;
32196;SDS011;18697;42.770;23.400;2023-07-08T01:45:19;13.38;;;10.10;;
32196;SDS011;18697;42.770;23.400;2023-07-08T01:47:56;15.25;;;10.70;;
32196;SDS011;18697;42.770;23.400;2023-07-08T01:50:26;11.90;;;9.52;;
32196;SDS011;18697;42.770;23.400;2023-07-08T01:52:53;13.63;;;10.07;;
32196;SDS011;18697;42.770;23.400;2023-07-08T01:55:23;11.85;;;8.63;;
32196;SDS011;18697;42.770;23.400;2023-07-08T01:57:51;10.05;;;8.52;;
32196;SDS011;18697;42.770;23.400;2023-07-08T02:00:18;12.88;;;9.55;;
32196;SDS011;18697;42.770;23.400;2023-07-08T02:02:43;14.95;;;11.07;;
32196;SDS011;18697;42.770;23.400;2023-07-08T02:05:09;14.52;;;10.98;;
32196;SDS011;18697;42.770;23.400;2023-07-08T02:07:34;11.07;;;9.63;;
32196;SDS011;18697;42.770;23.400;2023-07-08T02:10:00;14.55;;;10.80;;
32196;SDS011;18697;42.770;23.400;2023-07-08T02:12:25;14.48;;;10.32;;
32196;SDS011;18697;42.770;23.400;2023-07-08T02:14:50;15.68;;;9.32;;
32196;SDS011;18697;42.770;23.400;2023-07-08T02:17:16;11.93;;;9.43;;
32196;SDS011;18697;42.770;23.400;2023-07-08T02:19:42;18.90;;;10.18;;
32196;SDS011;18697;42.770;23.400;2023-07-08T02:22:08;12.98;;;10.13;;
32196;SDS011;18697;42.770;23.400;2023-07-08T02:24:34;11.48;;;9.55;;
32196;SDS011;18697;42.770;23.400;2023-07-08T02:26:59;12.05;;;9.18;;
32196;SDS011;18697;42.770;23.400;2023-07-08T02:29:24;10.25;;;8.45;;
32196;SDS011;18697;42.770;23.400;2023-07-08T02:31:51;12.52;;;9.63;;
32196;SDS011;18697;42.770;23.400;2023-07-08T02:34:16;11.23;;;8.75;;
32196;SDS011;18697;42.770;23.400;2023-07-08T02:36:42;11.98;;;9.60;;
32196;SDS011;18697;42.770;23.400;2023-07-08T02:39:08;12.80;;;9.32;;
32196;SDS011;18697;42.770;23.400;2023-07-08T02:41:34;14.50;;;9.63;;
32196;SDS011;18697;42.770;23.400;2023-07-08T02:43:59;14.43;;;10.48;;
32196;SDS011;18697;42.770;23.400;2023-07-08T02:46:25;13.45;;;10.15;;
32196;SDS011;18697;42.770;23.400;2023-07-08T02:48:51;12.57;;;10.93;;
32196;SDS011;18697;42.770;23.400;2023-07-08T02:51:16;19.00;;;11.27;;
32196;SDS011;18697;42.770;23.400;2023-07-08T02:53:41;15.38;;;10.00;;
32196;SDS011;18697;42.770;23.400;2023-07-08T02:56:07;14.15;;;10.85;;
32196;SDS011;18697;42.770;23.400;2023-07-08T02:58:33;13.00;;;10.35;;
32196;SDS011;18697;42.770;23.400;2023-07-08T03:01:00;18.15;;;11.63;;
32196;SDS011;18697;42.770;23.400;2023-07-08T03:03:26;14.40;;;10.50;;
32196;SDS011;18697;42.770;23.400;2023-07-08T03:05:59;18.75;;;12.40;;
32196;SDS011;18697;42.770;23.400;2023-07-08T03:08:26;14.55;;;10.30;;
32196;SDS011;18697;42.770;23.400;2023-07-08T03:10:56;13.90;;;10.00;;
32196;SDS011;18697;42.770;23.400;2023-07-08T03:13:23;14.02;;;9.00;;
32196;SDS011;18697;42.770;23.400;2023-07-08T03:15:49;10.77;;;9.25;;
32196;SDS011;18697;42.770;23.400;2023-07-08T03:18:15;13.48;;;9.15;;
32196;SDS011;18697;42.770;23.400;2023-07-08T03:20:41;11.05;;;7.97;;
32196;SDS011;18697;42.770;23.400;2023-07-08T03:23:10;11.88;;;8.48;;
32196;SDS011;18697;42.770;23.400;2023-07-08T03:25:36;9.38;;;7.65;;
32196;SDS011;18697;42.770;23.400;2023-07-08T03:28:02;10.00;;;7.88;;
32196;SDS011;18697;42.770;23.400;2023-07-08T03:30:28;11.20;;;7.57;;
32196;SDS011;18697;42.770;23.400;2023-07-08T03:32:54;11.73;;;7.78;;
32196;SDS011;18697;42.770;23.400;2023-07-08T03:35:20;8.63;;;7.53;;
32196;SDS011;18697;42.770;23.400;2023-07-08T03:37:47;9.63;;;7.38;;
32196;SDS011;18697;42.770;23.400;2023-07-08T03:40:12;14.35;;;8.02;;
32196;SDS011;18697;42.770;23.400;2023-07-08T03:42:38;9.15;;;7.32;;
32196;SDS011;18697;42.770;23.400;2023-07-08T03:45:04;12.05;;;8.52;;
32196;SDS011;18697;42.770;23.400;2023-07-08T03:47:29;9.25;;;7.72;;
32196;SDS011;18697;42.770;23.400;2023-07-08T03:49:55;13.27;;;8.35;;
32196;SDS011;18697;42.770;23.400;2023-07-08T03:52:20;12.68;;;8.13;;
32196;SDS011;18697;42.770;23.400;2023-07-08T03:54:45;10.93;;;7.72;;
32196;SDS011;18697;42.770;23.400;2023-07-08T03:57:11;9.48;;;7.88;;
32196;SDS011;18697;42.770;23.400;2023-07-08T03:59:37;10.15;;;7.50;;
32196;SDS011;18697;42.770;23.400;2023-07-08T04:02:03;12.50;;;7.88;;
32196;SDS011;18697;42.770;23.400;2023-07-08T04:04:28;8.52;;;7.13;;
32196;SDS011;18697;42.770;23.400;2023-07-08T04:06:54;12.43;;;8.20;;
32196;SDS011;18697;42.770;23.400;2023-07-08T04:09:20;10.32;;;8.05;;
32196;SDS011;18697;42.770;23.400;2023-07-08T04:11:45;11.75;;;8.52;;
32196;SDS011;18697;42.770;23.400;2023-07-08T04:14:11;12.10;;;7.85;;
32196;SDS011;18697;42.770;23.400;2023-07-08T04:16:47;11.52;;;8.50;;
32196;SDS011;18697;42.770;23.400;2023-07-08T04:19:18;11.45;;;8.25;;
32196;SDS011;18697;42.770;23.400;2023-07-08T04:21:44;9.23;;;8.13;;
32196;SDS011;18697;42.770;23.400;2023-07-08T04:24:11;11.75;;;8.65;;
32196;SDS011;18697;42.770;23.400;2023-07-08T04:26:38;9.55;;;8.38;;
32196;SDS011;18697;42.770;23.400;2023-07-08T04:29:14;11.52;;;9.75;;
32196;SDS011;18697;42.770;23.400;2023-07-08T04:31:43;12.02;;;9.20;;
32196;SDS011;18697;42.770;23.400;2023-07-08T04:34:09;10.43;;;8.85;;
32196;SDS011;18697;42.770;23.400;2023-07-08T04:36:35;15.18;;;9.00;;
32196;SDS011;18697;42.770;23.400;2023-07-08T04:39:02;12.05;;;8.27;;
32196;SDS011;18697;42.770;23.400;2023-07-08T04:41:28;10.35;;;8.90;;
32196;SDS011;18697;42.770;23.400;2023-07-08T04:43:54;11.68;;;8.65;;
32196;SDS011;18697;42.770;23.400;2023-07-08T04:48:53;14.65;;;10.50;;
32196;SDS011;18697;42.770;23.400;2023-07-08T04:51:19;12.57;;;10.18;;
32196;SDS011;18697;42.770;23.400;2023-07-08T04:53:44;14.20;;;10.80;;
32196;SDS011;18697;42.770;23.400;2023-07-08T04:56:10;13.15;;;10.10;;
32196;SDS011;18697;42.770;23.400;2023-07-08T04:58:35;18.55;;;10.93;;
32196;SDS011;18697;42.770;23.400;2023-07-08T05:01:00;16.05;;;11.20;;
32196;SDS011;18697;42.770;23.400;2023-07-08T05:03:26;12.20;;;10.90;;
32196;SDS011;18697;42.770;23.400;2023-07-08T05:05:51;11.90;;;10.70;;
32196;SDS011;18697;42.770;23.400;2023-07-08T05:08:16;18.63;;;11.35;;
32196;SDS011;18697;42.770;23.400;2023-07-08T05:10:42;15.90;;;10.95;;
32196;SDS011;18697;42.770;23.400;2023-07-08T05:13:07;13.25;;;10.15;;
32196;SDS011;18697;42.770;23.400;2023-07-08T05:15:32;13.60;;;10.90;;
32196;SDS011;18697;42.770;23.400;2023-07-08T05:17:58;12.48;;;10.82;;
32196;SDS011;18697;42.770;23.400;2023-07-08T05:20:23;11.63;;;10.15;;
32196;SDS011;18697;42.770;23.400;2023-07-08T05:22:48;16.50;;;10.70;;
32196;SDS011;18697;42.770;23.400;2023-07-08T05:25:14;13.77;;;10.70;;
32196;SDS011;18697;42.770;23.400;2023-07-08T05:27:40;10.80;;;9.70;;
32196;SDS011;18697;42.770;23.400;2023-07-08T05:30:07;11.38;;;10.27;;
32196;SDS011;18697;42.770;23.400;2023-07-08T05:32:37;13.73;;;10.55;;
32196;SDS011;18697;42.770;23.400;2023-07-08T05:35:06;15.30;;;10.63;;
32196;SDS011;18697;42.770;23.400;2023-07-08T05:37:31;18.15;;;10.77;;
32196;SDS011;18697;42.770;23.400;2023-07-08T05:39:57;12.43;;;9.02;;
32196;SDS011;18697;42.770;23.400;2023-07-08T05:42:25;15.18;;;9.38;;
32196;SDS011;18697;42.770;23.400;2023-07-08T05:44:50;11.35;;;9.77;;
32196;SDS011;18697;42.770;23.400;2023-07-08T05:47:17;11.18;;;9.02;;
32196;SDS011;18697;42.770;23.400;2023-07-08T05:49:42;12.35;;;8.80;;
32196;SDS011;18697;42.770;23.400;2023-07-08T05:52:08;14.00;;;9.60;;
32196;SDS011;18697;42.770;23.400;2023-07-08T05:54:39;12.15;;;9.75;;
32196;SDS011;18697;42.770;23.400;2023-07-08T05:57:07;13.27;;;8.55;;
32196;SDS011;18697;42.770;23.400;2023-07-08T05:59:35;12.23;;;9.15;;
32196;SDS011;18697;42.770;23.400;2023-07-08T06:02:01;13.35;;;8.57;;
32196;SDS011;18697;42.770;23.400;2023-07-08T06:04:27;18.75;;;9.57;;
32196;SDS011;18697;42.770;23.400;2023-07-08T06:06:53;10.65;;;9.55;;
32196;SDS011;18697;42.770;23.400;2023-07-08T06:09:18;15.63;;;8.93;;
32196;SDS011;18697;42.770;23.400;2023-07-08T06:11:44;11.02;;;8.80;;
32196;SDS011;18697;42.770;23.400;2023-07-08T06:14:09;12.80;;;8.05;;
32196;SDS011;18697;42.770;23.400;2023-07-08T06:16:35;11.40;;;8.68;;
32196;SDS011;18697;42.770;23.400;2023-07-08T06:19:00;14.70;;;9.40;;
32196;SDS011;18697;42.770;23.400;2023-07-08T06:21:25;11.10;;;9.15;;
32196;SDS011;18697;42.770;23.400;2023-07-08T06:23:51;9.65;;;8.65;;
32196;SDS011;18697;42.770;23.400;2023-07-08T06:26:16;10.50;;;8.63;;
32196;SDS011;18697;42.770;23.400;2023-07-08T06:28:42;10.75;;;8.32;;
32196;SDS011;18697;42.770;23.400;2023-07-08T06:31:07;10.65;;;9.55;;
32196;SDS011;18697;42.770;23.400;2023-07-08T06:33:32;11.15;;;9.60;;
32196;SDS011;18697;42.770;23.400;2023-07-08T06:35:58;10.13;;;9.05;;
32196;SDS011;18697;42.770;23.400;2023-07-08T06:38:23;9.82;;;8.48;;
32196;SDS011;18697;42.770;23.400;2023-07-08T06:40:49;10.98;;;8.65;;
32196;SDS011;18697;42.770;23.400;2023-07-08T06:43:14;9.70;;;8.52;;
32196;SDS011;18697;42.770;23.400;2023-07-08T06:45:40;10.95;;;8.40;;
32196;SDS011;18697;42.770;23.400;2023-07-08T06:48:06;12.65;;;8.70;;
32196;SDS011;18697;42.770;23.400;2023-07-08T06:50:31;9.30;;;8.32;;
32196;SDS011;18697;42.770;23.400;2023-07-08T06:52:57;10.88;;;8.82;;
32196;SDS011;18697;42.770;23.400;2023-07-08T06:55:23;9.32;;;7.65;;
32196;SDS011;18697;42.770;23.400;2023-07-08T06:57:48;9.70;;;7.93;;
32196;SDS011;18697;42.770;23.400;2023-07-08T07:00:14;9.85;;;8.25;;
32196;SDS011;18697;42.770;23.400;2023-07-08T07:02:40;10.13;;;7.68;;
32196;SDS011;18697;42.770;23.400;2023-07-08T07:05:05;8.90;;;7.97;;
32196;SDS011;18697;42.770;23.400;2023-07-08T07:07:31;10.82;;;7.35;;
32196;SDS011;18697;42.770;23.400;2023-07-08T07:09:59;11.80;;;7.18;;
32196;SDS011;18697;42.770;23.400;2023-07-08T07:12:24;15.50;;;7.50;;
32196;SDS011;18697;42.770;23.400;2023-07-08T07:14:51;9.57;;;8.48;;
32196;SDS011;18697;42.770;23.400;2023-07-08T07:17:18;9.15;;;6.72;;
32196;SDS011;18697;42.770;23.400;2023-07-08T07:19:45;11.57;;;7.63;;
32196;SDS011;18697;42.770;23.400;2023-07-08T07:22:10;8.95;;;7.47;;
32196;SDS011;18697;42.770;23.400;2023-07-08T07:24:35;8.20;;;6.55;;
32196;SDS011;18697;42.770;23.400;2023-07-08T07:27:01;9.52;;;7.03;;
32196;SDS011;18697;42.770;23.400;2023-07-08T07:29:26;10.48;;;7.07;;
32196;SDS011;18697;42.770;23.400;2023-07-08T07:31:52;8.48;;;7.18;;
32196;SDS011;18697;42.770;23.400;2023-07-08T07:34:17;8.68;;;7.10;;
32196;SDS011;18697;42.770;23.400;2023-07-08T07:36:42;8.75;;;7.43;;
32196;SDS011;18697;42.770;23.400;2023-07-08T07:39:08;7.95;;;7.18;;
32196;SDS011;18697;42.770;23.400;2023-07-08T07:41:33;8.52;;;7.10;;
32196;SDS011;18697;42.770;23.400;2023-07-08T07:43:58;9.45;;;8.13;;
32196;SDS011;18697;42.770;23.400;2023-07-08T07:46:24;11.00;;;7.80;;
32196;SDS011;18697;42.770;23.400;2023-07-08T07:48:49;11.07;;;6.90;;
32196;SDS011;18697;42.770;23.400;2023-07-08T07:51:14;8.68;;;7.50;;
32196;SDS011;18697;42.770;23.400;2023-07-08T07:53:40;8.43;;;7.07;;
32196;SDS011;18697;42.770;23.400;2023-07-08T07:56:06;8.65;;;6.47;;
32196;SDS011;18697;42.770;23.400;2023-07-08T07:58:32;12.10;;;6.15;;
32196;SDS011;18697;42.770;23.400;2023-07-08T08:00:58;7.32;;;5.85;;
32196;SDS011;18697;42.770;23.400;2023-07-08T08:03:24;10.70;;;6.32;;
32196;SDS011;18697;42.770;23.400;2023-07-08T08:05:49;8.38;;;6.70;;
32196;SDS011;18697;42.770;23.400;2023-07-08T08:08:15;8.13;;;6.65;;
32196;SDS011;18697;42.770;23.400;2023-07-08T08:10:44;9.63;;;6.88;;
32196;SDS011;18697;42.770;23.400;2023-07-08T08:13:10;7.65;;;6.95;;
32196;SDS011;18697;42.770;23.400;2023-07-08T08:15:36;8.10;;;6.75;;
32196;SDS011;18697;42.770;23.400;2023-07-08T08:18:02;10.40;;;6.72;;
32196;SDS011;18697;42.770;23.400;2023-07-08T08:20:28;7.22;;;6.40;;
32196;SDS011;18697;42.770;23.400;2023-07-08T08:22:54;10.43;;;6.68;;
32196;SDS011;18697;42.770;23.400;2023-07-08T08:25:20;10.40;;;6.90;;
32196;SDS011;18697;42.770;23.400;2023-07-08T08:27:50;7.32;;;6.20;;
32196;SDS011;18697;42.770;23.400;2023-07-08T08:30:17;8.30;;;6.70;;
32196;SDS011;18697;42.770;23.400;2023-07-08T08:32:42;9.32;;;6.85;;
32196;SDS011;18697;42.770;23.400;2023-07-08T08:35:08;7.30;;;6.60;;
32196;SDS011;18697;42.770;23.400;2023-07-08T08:37:34;9.27;;;6.40;;
32196;SDS011;18697;42.770;23.400;2023-07-08T08:39:59;7.63;;;6.72;;
32196;SDS011;18697;42.770;23.400;2023-07-08T08:42:30;7.57;;;6.68;;
32196;SDS011;18697;42.770;23.400;2023-07-08T08:44:57;9.68;;;6.80;;
32196;SDS011;18697;42.770;23.400;2023-07-08T08:47:35;7.22;;;6.30;;
32196;SDS011;18697;42.770;23.400;2023-07-08T08:50:03;7.20;;;6.40;;
32196;SDS011;18697;42.770;23.400;2023-07-08T08:52:36;8.17;;;7.17;;
32196;SDS011;18697;42.770;23.400;2023-07-08T08:55:12;7.25;;;6.55;;
32196;SDS011;18697;42.770;23.400;2023-07-08T09:00:10;8.10;;;7.10;;
32196;SDS011;18697;42.770;23.400;2023-07-08T09:02:55;8.65;;;6.50;;
32196;SDS011;18697;42.770;23.400;2023-07-08T09:05:26;7.97;;;7.10;;
32196;SDS011;18697;42.770;23.400;2023-07-08T09:10:47;9.27;;;7.55;;
32196;SDS011;18697;42.770;23.400;2023-07-08T09:13:57;9.25;;;6.88;;
32196;SDS011;18697;42.770;23.400;2023-07-08T09:16:07;9.43;;;6.72;;
32196;SDS011;18697;42.770;23.400;2023-07-08T09:18:45;9.95;;;6.93;;
32196;SDS011;18697;42.770;23.400;2023-07-08T09:21:26;7.55;;;6.22;;
32196;SDS011;18697;42.770;23.400;2023-07-08T09:23:59;6.97;;;6.13;;
32196;SDS011;18697;42.770;23.400;2023-07-08T09:26:30;7.07;;;6.38;;
32196;SDS011;18697;42.770;23.400;2023-07-08T09:28:57;8.60;;;6.35;;
32196;SDS011;18697;42.770;23.400;2023-07-08T09:31:24;8.45;;;5.78;;
32196;SDS011;18697;42.770;23.400;2023-07-08T09:33:52;6.93;;;6.22;;
32196;SDS011;18697;42.770;23.400;2023-07-08T09:36:29;8.25;;;5.50;;
32196;SDS011;18697;42.770;23.400;2023-07-08T09:38:54;6.95;;;5.95;;
32196;SDS011;18697;42.770;23.400;2023-07-08T09:41:33;8.52;;;6.35;;
32196;SDS011;18697;42.770;23.400;2023-07-08T09:44:08;6.93;;;5.70;;
32196;SDS011;18697;42.770;23.400;2023-07-08T09:46:37;7.63;;;5.82;;
32196;SDS011;18697;42.770;23.400;2023-07-08T09:49:16;7.45;;;5.43;;
32196;SDS011;18697;42.770;23.400;2023-07-08T09:51:44;11.18;;;6.68;;
32196;SDS011;18697;42.770;23.400;2023-07-08T09:54:11;7.32;;;5.75;;
32196;SDS011;18697;42.770;23.400;2023-07-08T09:56:38;8.88;;;5.55;;
32196;SDS011;18697;42.770;23.400;2023-07-08T09:59:11;6.63;;;5.72;;
32196;SDS011;18697;42.770;23.400;2023-07-08T10:01:38;7.80;;;5.50;;
32196;SDS011;18697;42.770;23.400;2023-07-08T10:04:04;7.88;;;5.60;;
32196;SDS011;18697;42.770;23.400;2023-07-08T10:06:32;8.45;;;5.32;;
32196;SDS011;18697;42.770;23.400;2023-07-08T10:09:14;6.18;;;5.57;;
32196;SDS011;18697;42.770;23.400;2023-07-08T10:11:51;7.68;;;5.85;;
32196;SDS011;18697;42.770;23.400;2023-07-08T10:14:25;6.45;;;5.60;;
32196;SDS011;18697;42.770;23.400;2023-07-08T10:16:54;8.75;;;5.65;;
32196;SDS011;18697;42.770;23.400;2023-07-08T10:19:20;7.40;;;5.50;;
32196;SDS011;18697;42.770;23.400;2023-07-08T10:32:39;7.70;;;5.65;;
32196;SDS011;18697;42.770;23.400;2023-07-08T10:35:27;6.38;;;5.78;;
32196;SDS011;18697;42.770;23.400;2023-07-08T10:38:06;7.75;;;5.40;;
32196;SDS011;18697;42.770;23.400;2023-07-08T10:40:54;8.00;;;5.88;;
32196;SDS011;18697;42.770;23.400;2023-07-08T11:10:35;9.52;;;4.72;;
32196;SDS011;18697;42.770;23.400;2023-07-08T11:13:09;5.18;;;3.90;;
32196;SDS011;18697;42.770;23.400;2023-07-08T11:15:43;4.97;;;4.20;;
32196;SDS011;18697;42.770;23.400;2023-07-08T11:21:24;4.60;;;4.20;;
32196;SDS011;18697;42.770;23.400;2023-07-08T11:29:17;6.18;;;4.45;;
32196;SDS011;18697;42.770;23.400;2023-07-08T11:31:46;5.03;;;4.32;;
32196;SDS011;18697;42.770;23.400;2023-07-08T11:34:12;4.20;;;3.80;;
32196;SDS011;18697;42.770;23.400;2023-07-08T11:36:41;11.70;;;4.20;;
32196;SDS011;18697;42.770;23.400;2023-07-08T11:41:52;6.88;;;4.80;;
32196;SDS011;18697;42.770;23.400;2023-07-08T11:44:56;4.47;;;4.07;;
32196;SDS011;18697;42.770;23.400;2023-07-08T11:47:40;4.63;;;4.18;;
32196;SDS011;18697;42.770;23.400;2023-07-08T11:52:58;4.45;;;3.80;;
32196;SDS011;18697;42.770;23.400;2023-07-08T11:55:26;4.55;;;4.10;;
32196;SDS011;18697;42.770;23.400;2023-07-08T11:58:01;6.00;;;4.10;;
32196;SDS011;18697;42.770;23.400;2023-07-08T12:00:32;5.65;;;4.30;;
32196;SDS011;18697;42.770;23.400;2023-07-08T12:03:03;4.35;;;3.50;;
32196;SDS011;18697;42.770;23.400;2023-07-08T12:05:46;6.70;;;3.83;;
32196;SDS011;18697;42.770;23.400;2023-07-08T12:08:13;4.28;;;3.65;;
32196;SDS011;18697;42.770;23.400;2023-07-08T12:10:41;3.85;;;3.45;;
32196;SDS011;18697;42.770;23.400;2023-07-08T12:13:14;4.00;;;3.53;;
32196;SDS011;18697;42.770;23.400;2023-07-08T12:15:43;4.47;;;3.53;;
32196;SDS011;18697;42.770;23.400;2023-07-08T12:18:42;8.13;;;3.63;;
32196;SDS011;18697;42.770;23.400;2023-07-08T12:21:03;4.50;;;3.88;;
32196;SDS011;18697;42.770;23.400;2023-07-08T12:23:28;7.75;;;3.42;;
32196;SDS011;18697;42.770;23.400;2023-07-08T12:25:54;4.10;;;3.70;;
32196;SDS011;18697;42.770;23.400;2023-07-08T12:28:22;3.85;;;3.35;;
32196;SDS011;18697;42.770;23.400;2023-07-08T12:30:49;5.88;;;3.58;;
32196;SDS011;18697;42.770;23.400;2023-07-08T12:33:17;3.72;;;3.28;;
32196;SDS011;18697;42.770;23.400;2023-07-08T12:35:44;3.80;;;3.47;;
32196;SDS011;18697;42.770;23.400;2023-07-08T12:41:00;4.00;;;2.83;;
32196;SDS011;18697;42.770;23.400;2023-07-08T12:43:30;6.05;;;2.90;;
32196;SDS011;18697;42.770;23.400;2023-07-08T12:45:55;5.93;;;3.10;;
32196;SDS011;18697;42.770;23.400;2023-07-08T12:48:21;8.40;;;3.13;;
32196;SDS011;18697;42.770;23.400;2023-07-08T12:50:46;3.13;;;2.80;;
32196;SDS011;18697;42.770;23.400;2023-07-08T12:53:15;4.50;;;2.97;;
32196;SDS011;18697;42.770;23.400;2023-07-08T12:55:40;6.63;;;2.90;;
32196;SDS011;18697;42.770;23.400;2023-07-08T12:58:19;3.63;;;2.80;;
32196;SDS011;18697;42.770;23.400;2023-07-08T13:00:53;6.82;;;2.90;;
32196;SDS011;18697;42.770;23.400;2023-07-08T13:03:22;3.33;;;2.85;;
32196;SDS011;18697;42.770;23.400;2023-07-08T13:05:51;3.42;;;2.80;;
32196;SDS011;18697;42.770;23.400;2023-07-08T13:08:21;3.90;;;2.70;;
32196;SDS011;18697;42.770;23.400;2023-07-08T13:10:50;3.47;;;2.63;;
32196;SDS011;18697;42.770;23.400;2023-07-08T13:13:39;4.22;;;2.70;;
32196;SDS011;18697;42.770;23.400;2023-07-08T13:16:08;5.38;;;2.60;;
32196;SDS011;18697;42.770;23.400;2023-07-08T13:18:39;3.67;;;2.80;;
32196;SDS011;18697;42.770;23.400;2023-07-08T13:21:06;3.60;;;2.72;;
32196;SDS011;18697;42.770;23.400;2023-07-08T13:23:35;3.92;;;3.53;;
32196;SDS011;18697;42.770;23.400;2023-07-08T13:26:01;5.25;;;2.38;;
32196;SDS011;18697;42.770;23.400;2023-07-08T13:28:37;4.20;;;3.20;;
32196;SDS011;18697;42.770;23.400;2023-07-08T13:31:16;4.75;;;2.90;;
32196;SDS011;18697;42.770;23.400;2023-07-08T13:33:47;3.22;;;2.80;;
32196;SDS011;18697;42.770;23.400;2023-07-08T13:36:16;5.57;;;2.80;;
32196;SDS011;18697;42.770;23.400;2023-07-08T13:38:43;4.85;;;2.80;;
32196;SDS011;18697;42.770;23.400;2023-07-08T13:41:09;2.67;;;2.42;;
32196;SDS011;18697;42.770;23.400;2023-07-08T13:43:38;5.35;;;3.05;;
32196;SDS011;18697;42.770;23.400;2023-07-08T13:46:06;5.97;;;2.60;;
32196;SDS011;18697;42.770;23.400;2023-07-08T13:48:51;3.22;;;2.67;;
32196;SDS011;18697;42.770;23.400;2023-07-08T13:51:18;6.55;;;3.70;;
32196;SDS011;18697;42.770;23.400;2023-07-08T13:53:50;4.45;;;3.20;;
32196;SDS011;18697;42.770;23.400;2023-07-08T13:56:22;4.00;;;3.00;;
32196;SDS011;18697;42.770;23.400;2023-07-08T14:01:26;5.40;;;2.78;;
32196;SDS011;18697;42.770;23.400;2023-07-08T14:03:53;2.95;;;2.58;;
32196;SDS011;18697;42.770;23.400;2023-07-08T14:06:21;5.25;;;2.97;;
32196;SDS011;18697;42.770;23.400;2023-07-08T14:08:54;3.97;;;2.80;;
32196;SDS011;18697;42.770;23.400;2023-07-08T14:11:21;5.28;;;2.58;;
32196;SDS011;18697;42.770;23.400;2023-07-08T14:13:47;15.07;;;4.15;;
32196;SDS011;18697;42.770;23.400;2023-07-08T14:16:27;4.90;;;2.70;;
32196;SDS011;18697;42.770;23.400;2023-07-08T14:18:54;2.90;;;2.60;;
32196;SDS011;18697;42.770;23.400;2023-07-08T14:21:21;8.10;;;3.20;;
32196;SDS011;18697;42.770;23.400;2023-07-08T14:23:47;3.17;;;2.35;;
32196;SDS011;18697;42.770;23.400;2023-07-08T14:26:12;7.40;;;2.78;;
32196;SDS011;18697;42.770;23.400;2023-07-08T14:28:38;4.40;;;2.80;;
32196;SDS011;18697;42.770;23.400;2023-07-08T14:31:07;9.25;;;2.75;;
32196;SDS011;18697;42.770;23.400;2023-07-08T14:33:37;3.17;;;2.88;;
32196;SDS011;18697;42.770;23.400;2023-07-08T14:36:07;5.00;;;2.85;;
32196;SDS011;18697;42.770;23.400;2023-07-08T14:38:33;7.45;;;3.03;;
32196;SDS011;18697;42.770;23.400;2023-07-08T14:40:58;6.15;;;2.70;;
32196;SDS011;18697;42.770;23.400;2023-07-08T14:43:26;3.22;;;2.80;;
32196;SDS011;18697;42.770;23.400;2023-07-08T14:45:54;4.10;;;3.15;;
32196;SDS011;18697;42.770;23.400;2023-07-08T14:48:21;4.38;;;2.40;;
32196;SDS011;18697;42.770;23.400;2023-07-08T14:50:47;5.80;;;4.53;;
32196;SDS011;18697;42.770;23.400;2023-07-08T14:53:16;3.83;;;3.15;;
32196;SDS011;18697;42.770;23.400;2023-07-08T14:55:44;5.40;;;3.17;;
32196;SDS011;18697;42.770;23.400;2023-07-08T14:58:20;6.75;;;3.17;;
32196;SDS011;18697;42.770;23.400;2023-07-08T15:00:49;4.50;;;2.95;;
32196;SDS011;18697;42.770;23.400;2023-07-08T15:03:16;6.30;;;2.90;;
32196;SDS011;18697;42.770;23.400;2023-07-08T15:05:41;4.35;;;2.83;;
32196;SDS011;18697;42.770;23.400;2023-07-08T15:08:07;3.17;;;2.78;;
32196;SDS011;18697;42.770;23.400;2023-07-08T15:10:33;5.53;;;2.63;;
32196;SDS011;18697;42.770;23.400;2023-07-08T15:13:00;5.65;;;3.03;;
32196;SDS011;18697;42.770;23.400;2023-07-08T15:15:31;3.25;;;2.95;;
32196;SDS011;18697;42.770;23.400;2023-07-08T15:17:58;4.88;;;2.83;;
32196;SDS011;18697;42.770;23.400;2023-07-08T15:20:24;3.10;;;2.58;;
32196;SDS011;18697;42.770;23.400;2023-07-08T15:22:50;3.67;;;2.97;;
32196;SDS011;18697;42.770;23.400;2023-07-08T15:25:16;3.17;;;2.88;;
32196;SDS011;18697;42.770;23.400;2023-07-08T15:27:52;3.08;;;2.53;;
32196;SDS011;18697;42.770;23.400;2023-07-08T15:30:21;7.13;;;3.78;;
32196;SDS011;18697;42.770;23.400;2023-07-08T15:32:49;2.75;;;2.40;;
32196;SDS011;18697;42.770;23.400;2023-07-08T15:35:19;2.65;;;2.40;;
32196;SDS011;18697;42.770;23.400;2023-07-08T15:37:49;2.33;;;2.13;;
32196;SDS011;18697;42.770;23.400;2023-07-08T15:40:15;2.40;;;2.20;;